sensor_id;sensor_type;location;lat;lon;timestamp;P1;durP1;ratioP1;P2;durP2;ratioP2
52306;SDS011;38249;48.920;12.882;2022-07-29T00:01:08;4.63;;;4.22;;
52306;SDS011;38249;48.920;12.882;2022-07-29T00:03:35;4.85;;;4.45;;
52306;SDS011;38249;48.920;12.882;2022-07-29T00:06:01;6.63;;;4.60;;
52306;SDS011;38249;48.920;12.882;2022-07-29T00:08:28;10.40;;;4.78;;
52306;SDS011;38249;48.920;12.882;2022-07-29T00:10:54;4.50;;;4.10;;
52306;SDS011;38249;48.920;12.882;2022-07-29T00:13:21;5.78;;;4.22;;
52306;SDS011;38249;48.920;12.882;2022-07-29T00:15:47;4.68;;;4.28;;
52306;SDS011;38249;48.920;12.882;2022-07-29T00:18:15;4.85;;;4.40;;
52306;SDS011;38249;48.920;12.882;2022-07-29T00:20:41;4.82;;;4.43;;
52306;SDS011;38249;48.920;12.882;2022-07-29T00:23:08;6.68;;;5.03;;
52306;SDS011;38249;48.920;12.882;2022-07-29T00:25:34;7.03;;;4.47;;
52306;SDS011;38249;48.920;12.882;2022-07-29T00:28:01;4.85;;;4.40;;
52306;SDS011;38249;48.920;12.882;2022-07-29T00:30:27;4.75;;;4.35;;
52306;SDS011;38249;48.920;12.882;2022-07-29T00:32:54;5.38;;;4.88;;
52306;SDS011;38249;48.920;12.882;2022-07-29T00:35:22;6.13;;;4.68;;
52306;SDS011;38249;48.920;12.882;2022-07-29T00:38:06;4.63;;;4.22;;
52306;SDS011;38249;48.920;12.882;2022-07-29T00:40:33;4.38;;;4.07;;
52306;SDS011;38249;48.920;12.882;2022-07-29T00:42:59;5.00;;;4.50;;
52306;SDS011;38249;48.920;12.882;2022-07-29T00:45:26;5.63;;;5.00;;
52306;SDS011;38249;48.920;12.882;2022-07-29T00:47:54;6.97;;;4.28;;
52306;SDS011;38249;48.920;12.882;2022-07-29T00:50:22;4.75;;;4.30;;
52306;SDS011;38249;48.920;12.882;2022-07-29T00:52:49;5.57;;;4.18;;
52306;SDS011;38249;48.920;12.882;2022-07-29T00:55:17;5.10;;;4.70;;
52306;SDS011;38249;48.920;12.882;2022-07-29T00:57:44;5.90;;;5.13;;
52306;SDS011;38249;48.920;12.882;2022-07-29T01:00:13;13.63;;;10.70;;
52306;SDS011;38249;48.920;12.882;2022-07-29T01:02:42;8.15;;;7.20;;
52306;SDS011;38249;48.920;12.882;2022-07-29T01:05:09;11.23;;;10.13;;
52306;SDS011;38249;48.920;12.882;2022-07-29T01:07:38;6.18;;;5.50;;
52306;SDS011;38249;48.920;12.882;2022-07-29T01:10:06;6.07;;;5.47;;
52306;SDS011;38249;48.920;12.882;2022-07-29T01:12:36;5.20;;;4.70;;
52306;SDS011;38249;48.920;12.882;2022-07-29T01:15:04;5.20;;;4.70;;
52306;SDS011;38249;48.920;12.882;2022-07-29T01:17:33;5.13;;;4.63;;
52306;SDS011;38249;48.920;12.882;2022-07-29T01:20:07;5.32;;;4.80;;
52306;SDS011;38249;48.920;12.882;2022-07-29T01:22:46;5.97;;;5.17;;
52306;SDS011;38249;48.920;12.882;2022-07-29T01:25:32;4.82;;;4.43;;
52306;SDS011;38249;48.920;12.882;2022-07-29T01:28:31;5.70;;;4.90;;
52306;SDS011;38249;48.920;12.882;2022-07-29T01:31:13;5.25;;;4.55;;
52306;SDS011;38249;48.920;12.882;2022-07-29T01:33:43;5.45;;;4.63;;
52306;SDS011;38249;48.920;12.882;2022-07-29T01:36:17;4.93;;;4.53;;
52306;SDS011;38249;48.920;12.882;2022-07-29T01:38:50;6.00;;;4.93;;
52306;SDS011;38249;48.920;12.882;2022-07-29T01:41:23;5.40;;;4.57;;
52306;SDS011;38249;48.920;12.882;2022-07-29T01:43:56;4.70;;;4.30;;
52306;SDS011;38249;48.920;12.882;2022-07-29T01:46:27;5.15;;;4.65;;
52306;SDS011;38249;48.920;12.882;2022-07-29T01:48:59;5.03;;;4.47;;
52306;SDS011;38249;48.920;12.882;2022-07-29T01:51:32;4.90;;;4.40;;
52306;SDS011;38249;48.920;12.882;2022-07-29T01:54:07;7.70;;;4.57;;
52306;SDS011;38249;48.920;12.882;2022-07-29T01:56:38;5.10;;;4.53;;
52306;SDS011;38249;48.920;12.882;2022-07-29T01:59:07;5.65;;;4.88;;
52306;SDS011;38249;48.920;12.882;2022-07-29T02:01:35;5.20;;;4.40;;
52306;SDS011;38249;48.920;12.882;2022-07-29T02:04:04;5.32;;;4.82;;
52306;SDS011;38249;48.920;12.882;2022-07-29T02:06:34;7.90;;;4.57;;
52306;SDS011;38249;48.920;12.882;2022-07-29T02:09:04;5.13;;;4.63;;
52306;SDS011;38249;48.920;12.882;2022-07-29T02:11:33;5.07;;;4.57;;
52306;SDS011;38249;48.920;12.882;2022-07-29T02:14:01;5.22;;;4.68;;
52306;SDS011;38249;48.920;12.882;2022-07-29T02:16:31;5.70;;;4.40;;
52306;SDS011;38249;48.920;12.882;2022-07-29T02:19:02;5.43;;;4.93;;
52306;SDS011;38249;48.920;12.882;2022-07-29T02:21:30;4.97;;;4.35;;
52306;SDS011;38249;48.920;12.882;2022-07-29T02:23:59;4.85;;;4.03;;
52306;SDS011;38249;48.920;12.882;2022-07-29T02:26:27;4.55;;;4.15;;
52306;SDS011;38249;48.920;12.882;2022-07-29T02:28:57;4.82;;;4.43;;
52306;SDS011;38249;48.920;12.882;2022-07-29T02:31:25;5.47;;;4.70;;
52306;SDS011;38249;48.920;12.882;2022-07-29T02:33:57;5.63;;;4.38;;
52306;SDS011;38249;48.920;12.882;2022-07-29T02:36:25;5.32;;;4.82;;
52306;SDS011;38249;48.920;12.882;2022-07-29T02:38:53;4.70;;;4.20;;
52306;SDS011;38249;48.920;12.882;2022-07-29T02:41:26;7.30;;;5.35;;
52306;SDS011;38249;48.920;12.882;2022-07-29T02:43:55;10.88;;;9.25;;
52306;SDS011;38249;48.920;12.882;2022-07-29T02:46:25;7.45;;;5.97;;
52306;SDS011;38249;48.920;12.882;2022-07-29T02:48:58;18.63;;;15.18;;
52306;SDS011;38249;48.920;12.882;2022-07-29T02:51:28;5.40;;;4.90;;
52306;SDS011;38249;48.920;12.882;2022-07-29T02:54:02;11.80;;;9.90;;
52306;SDS011;38249;48.920;12.882;2022-07-29T02:56:33;7.78;;;7.00;;
52306;SDS011;38249;48.920;12.882;2022-07-29T02:59:03;7.70;;;5.95;;
52306;SDS011;38249;48.920;12.882;2022-07-29T03:01:33;8.15;;;6.95;;
52306;SDS011;38249;48.920;12.882;2022-07-29T03:04:03;4.70;;;4.30;;
52306;SDS011;38249;48.920;12.882;2022-07-29T03:06:31;5.68;;;5.03;;
52306;SDS011;38249;48.920;12.882;2022-07-29T03:09:00;8.77;;;5.22;;
52306;SDS011;38249;48.920;12.882;2022-07-29T03:11:27;8.13;;;7.32;;
52306;SDS011;38249;48.920;12.882;2022-07-29T03:13:55;7.93;;;7.13;;
52306;SDS011;38249;48.920;12.882;2022-07-29T03:16:22;7.97;;;7.18;;
52306;SDS011;38249;48.920;12.882;2022-07-29T03:18:49;7.57;;;6.45;;
52306;SDS011;38249;48.920;12.882;2022-07-29T03:21:17;9.02;;;8.15;;
52306;SDS011;38249;48.920;12.882;2022-07-29T03:23:44;8.50;;;7.70;;
52306;SDS011;38249;48.920;12.882;2022-07-29T03:26:11;11.63;;;10.43;;
52306;SDS011;38249;48.920;12.882;2022-07-29T03:28:37;7.80;;;5.82;;
52306;SDS011;38249;48.920;12.882;2022-07-29T03:31:04;11.95;;;9.73;;
52306;SDS011;38249;48.920;12.882;2022-07-29T03:33:30;7.00;;;5.22;;
52306;SDS011;38249;48.920;12.882;2022-07-29T03:35:57;6.53;;;5.93;;
52306;SDS011;38249;48.920;12.882;2022-07-29T03:38:25;9.00;;;8.07;;
52306;SDS011;38249;48.920;12.882;2022-07-29T03:40:56;6.35;;;5.75;;
52306;SDS011;38249;48.920;12.882;2022-07-29T03:43:27;8.70;;;7.28;;
52306;SDS011;38249;48.920;12.882;2022-07-29T03:45:56;5.78;;;5.28;;
52306;SDS011;38249;48.920;12.882;2022-07-29T03:48:25;5.95;;;5.28;;
52306;SDS011;38249;48.920;12.882;2022-07-29T03:50:54;9.75;;;5.68;;
52306;SDS011;38249;48.920;12.882;2022-07-29T03:53:21;6.75;;;5.97;;
52306;SDS011;38249;48.920;12.882;2022-07-29T03:55:50;6.50;;;5.90;;
52306;SDS011;38249;48.920;12.882;2022-07-29T03:58:19;9.95;;;9.02;;
52306;SDS011;38249;48.920;12.882;2022-07-29T04:00:48;11.02;;;6.55;;
52306;SDS011;38249;48.920;12.882;2022-07-29T04:03:15;10.35;;;7.53;;
52306;SDS011;38249;48.920;12.882;2022-07-29T04:05:42;7.35;;;6.53;;
52306;SDS011;38249;48.920;12.882;2022-07-29T04:08:08;7.80;;;6.15;;
52306;SDS011;38249;48.920;12.882;2022-07-29T04:10:35;7.90;;;7.10;;
52306;SDS011;38249;48.920;12.882;2022-07-29T04:13:03;7.07;;;6.43;;
52306;SDS011;38249;48.920;12.882;2022-07-29T04:15:29;8.00;;;7.05;;
52306;SDS011;38249;48.920;12.882;2022-07-29T04:17:56;7.90;;;6.70;;
52306;SDS011;38249;48.920;12.882;2022-07-29T04:20:22;7.47;;;6.78;;
52306;SDS011;38249;48.920;12.882;2022-07-29T04:22:49;9.20;;;7.15;;
52306;SDS011;38249;48.920;12.882;2022-07-29T04:25:15;6.95;;;6.35;;
52306;SDS011;38249;48.920;12.882;2022-07-29T04:27:42;8.43;;;7.10;;
52306;SDS011;38249;48.920;12.882;2022-07-29T04:30:23;7.03;;;6.43;;
52306;SDS011;38249;48.920;12.882;2022-07-29T04:32:50;7.00;;;6.40;;
52306;SDS011;38249;48.920;12.882;2022-07-29T04:35:16;8.63;;;7.38;;
52306;SDS011;38249;48.920;12.882;2022-07-29T04:37:43;8.10;;;6.38;;
52306;SDS011;38249;48.920;12.882;2022-07-29T04:40:10;7.07;;;6.38;;
52306;SDS011;38249;48.920;12.882;2022-07-29T04:42:37;11.80;;;10.52;;
52306;SDS011;38249;48.920;12.882;2022-07-29T04:45:03;10.40;;;8.98;;
52306;SDS011;38249;48.920;12.882;2022-07-29T04:47:32;7.38;;;6.68;;
52306;SDS011;38249;48.920;12.882;2022-07-29T04:49:58;13.90;;;12.50;;
52306;SDS011;38249;48.920;12.882;2022-07-29T04:52:25;14.52;;;13.10;;
52306;SDS011;38249;48.920;12.882;2022-07-29T04:54:51;11.77;;;7.22;;
52306;SDS011;38249;48.920;12.882;2022-07-29T04:57:18;10.68;;;9.57;;
52306;SDS011;38249;48.920;12.882;2022-07-29T04:59:44;9.60;;;7.75;;
52306;SDS011;38249;48.920;12.882;2022-07-29T05:02:10;8.73;;;7.93;;
52306;SDS011;38249;48.920;12.882;2022-07-29T05:04:38;7.65;;;6.95;;
52306;SDS011;38249;48.920;12.882;2022-07-29T05:07:05;8.27;;;7.47;;
52306;SDS011;38249;48.920;12.882;2022-07-29T05:09:31;8.43;;;7.50;;
52306;SDS011;38249;48.920;12.882;2022-07-29T05:11:58;8.70;;;6.78;;
52306;SDS011;38249;48.920;12.882;2022-07-29T05:14:24;8.13;;;7.10;;
52306;SDS011;38249;48.920;12.882;2022-07-29T05:16:51;7.30;;;6.40;;
52306;SDS011;38249;48.920;12.882;2022-07-29T05:19:21;7.68;;;6.57;;
52306;SDS011;38249;48.920;12.882;2022-07-29T05:21:49;8.48;;;7.43;;
52306;SDS011;38249;48.920;12.882;2022-07-29T05:24:16;6.47;;;5.80;;
52306;SDS011;38249;48.920;12.882;2022-07-29T05:26:42;10.70;;;8.57;;
52306;SDS011;38249;48.920;12.882;2022-07-29T05:29:09;6.13;;;5.53;;
52306;SDS011;38249;48.920;12.882;2022-07-29T05:31:36;6.85;;;5.70;;
52306;SDS011;38249;48.920;12.882;2022-07-29T05:34:02;5.68;;;5.20;;
52306;SDS011;38249;48.920;12.882;2022-07-29T05:36:29;6.55;;;5.90;;
52306;SDS011;38249;48.920;12.882;2022-07-29T05:38:56;9.35;;;7.22;;
52306;SDS011;38249;48.920;12.882;2022-07-29T05:41:23;7.55;;;6.85;;
52306;SDS011;38249;48.920;12.882;2022-07-29T05:43:49;6.65;;;6.05;;
52306;SDS011;38249;48.920;12.882;2022-07-29T05:46:16;14.38;;;12.98;;
52306;SDS011;38249;48.920;12.882;2022-07-29T05:48:43;14.05;;;12.63;;
52306;SDS011;38249;48.920;12.882;2022-07-29T05:51:09;13.60;;;12.10;;
52306;SDS011;38249;48.920;12.882;2022-07-29T05:53:36;14.23;;;12.80;;
52306;SDS011;38249;48.920;12.882;2022-07-29T05:56:04;7.50;;;6.82;;
52306;SDS011;38249;48.920;12.882;2022-07-29T05:58:31;6.10;;;5.50;;
52306;SDS011;38249;48.920;12.882;2022-07-29T06:00:58;6.00;;;5.50;;
52306;SDS011;38249;48.920;12.882;2022-07-29T06:03:25;9.73;;;7.18;;
52306;SDS011;38249;48.920;12.882;2022-07-29T06:05:51;6.45;;;5.50;;
52306;SDS011;38249;48.920;12.882;2022-07-29T06:08:18;6.80;;;5.75;;
52306;SDS011;38249;48.920;12.882;2022-07-29T06:10:45;6.78;;;6.10;;
52306;SDS011;38249;48.920;12.882;2022-07-29T06:13:12;5.57;;;5.10;;
52306;SDS011;38249;48.920;12.882;2022-07-29T06:15:40;8.88;;;6.55;;
52306;SDS011;38249;48.920;12.882;2022-07-29T06:18:07;9.30;;;7.28;;
52306;SDS011;38249;48.920;12.882;2022-07-29T06:20:35;8.23;;;7.13;;
52306;SDS011;38249;48.920;12.882;2022-07-29T06:23:01;7.75;;;7.00;;
52306;SDS011;38249;48.920;12.882;2022-07-29T06:25:29;9.55;;;8.38;;
52306;SDS011;38249;48.920;12.882;2022-07-29T06:27:57;5.80;;;5.30;;
52306;SDS011;38249;48.920;12.882;2022-07-29T06:30:25;5.30;;;4.65;;
52306;SDS011;38249;48.920;12.882;2022-07-29T06:32:51;5.25;;;4.75;;
52306;SDS011;38249;48.920;12.882;2022-07-29T06:35:18;6.20;;;5.00;;
52306;SDS011;38249;48.920;12.882;2022-07-29T06:37:44;4.97;;;4.53;;
52306;SDS011;38249;48.920;12.882;2022-07-29T06:40:11;5.20;;;4.78;;
52306;SDS011;38249;48.920;12.882;2022-07-29T06:42:55;5.30;;;4.80;;
52306;SDS011;38249;48.920;12.882;2022-07-29T06:45:22;6.03;;;4.97;;
52306;SDS011;38249;48.920;12.882;2022-07-29T06:47:50;6.18;;;4.90;;
52306;SDS011;38249;48.920;12.882;2022-07-29T06:50:18;5.60;;;4.65;;
52306;SDS011;38249;48.920;12.882;2022-07-29T06:52:44;5.82;;;4.45;;
52306;SDS011;38249;48.920;12.882;2022-07-29T06:55:11;5.90;;;4.75;;
52306;SDS011;38249;48.920;12.882;2022-07-29T06:57:37;5.60;;;5.10;;
52306;SDS011;38249;48.920;12.882;2022-07-29T07:00:04;5.70;;;5.20;;
52306;SDS011;38249;48.920;12.882;2022-07-29T07:02:32;6.22;;;5.63;;
52306;SDS011;38249;48.920;12.882;2022-07-29T07:04:59;8.27;;;5.53;;
52306;SDS011;38249;48.920;12.882;2022-07-29T07:07:26;5.72;;;5.18;;
52306;SDS011;38249;48.920;12.882;2022-07-29T07:09:52;7.57;;;5.45;;
52306;SDS011;38249;48.920;12.882;2022-07-29T07:12:19;11.30;;;5.00;;
52306;SDS011;38249;48.920;12.882;2022-07-29T07:14:45;6.93;;;5.60;;
52306;SDS011;38249;48.920;12.882;2022-07-29T07:17:12;6.00;;;5.40;;
52306;SDS011;38249;48.920;12.882;2022-07-29T07:19:38;5.38;;;4.60;;
52306;SDS011;38249;48.920;12.882;2022-07-29T07:22:06;4.95;;;4.53;;
52306;SDS011;38249;48.920;12.882;2022-07-29T07:24:32;6.00;;;5.13;;
52306;SDS011;38249;48.920;12.882;2022-07-29T07:26:59;6.13;;;5.55;;
52306;SDS011;38249;48.920;12.882;2022-07-29T07:29:25;5.53;;;5.03;;
52306;SDS011;38249;48.920;12.882;2022-07-29T07:31:52;6.53;;;5.10;;
52306;SDS011;38249;48.920;12.882;2022-07-29T07:34:19;9.75;;;5.35;;
52306;SDS011;38249;48.920;12.882;2022-07-29T07:36:45;6.13;;;5.53;;
52306;SDS011;38249;48.920;12.882;2022-07-29T07:39:13;5.80;;;5.30;;
52306;SDS011;38249;48.920;12.882;2022-07-29T07:41:39;6.47;;;5.28;;
52306;SDS011;38249;48.920;12.882;2022-07-29T07:44:06;7.43;;;5.75;;
52306;SDS011;38249;48.920;12.882;2022-07-29T07:46:32;8.45;;;5.50;;
52306;SDS011;38249;48.920;12.882;2022-07-29T07:48:59;6.70;;;5.30;;
52306;SDS011;38249;48.920;12.882;2022-07-29T07:51:25;6.85;;;6.20;;
52306;SDS011;38249;48.920;12.882;2022-07-29T07:53:51;7.03;;;6.32;;
52306;SDS011;38249;48.920;12.882;2022-07-29T07:56:19;6.97;;;6.32;;
52306;SDS011;38249;48.920;12.882;2022-07-29T07:58:46;6.90;;;6.20;;
52306;SDS011;38249;48.920;12.882;2022-07-29T08:01:12;7.38;;;6.20;;
52306;SDS011;38249;48.920;12.882;2022-07-29T08:03:39;8.00;;;6.50;;
52306;SDS011;38249;48.920;12.882;2022-07-29T08:06:05;7.30;;;6.70;;
52306;SDS011;38249;48.920;12.882;2022-07-29T08:08:32;6.15;;;5.57;;
52306;SDS011;38249;48.920;12.882;2022-07-29T08:10:58;7.03;;;6.30;;
52306;SDS011;38249;48.920;12.882;2022-07-29T08:13:28;7.80;;;5.97;;
52306;SDS011;38249;48.920;12.882;2022-07-29T08:15:55;6.72;;;6.03;;
52306;SDS011;38249;48.920;12.882;2022-07-29T08:18:26;7.28;;;6.57;;
52306;SDS011;38249;48.920;12.882;2022-07-29T08:20:53;6.00;;;5.50;;
52306;SDS011;38249;48.920;12.882;2022-07-29T08:23:21;6.38;;;5.78;;
52306;SDS011;38249;48.920;12.882;2022-07-29T08:25:48;6.97;;;5.55;;
52306;SDS011;38249;48.920;12.882;2022-07-29T08:28:14;5.82;;;5.30;;
52306;SDS011;38249;48.920;12.882;2022-07-29T08:30:42;12.57;;;5.30;;
52306;SDS011;38249;48.920;12.882;2022-07-29T08:33:09;5.80;;;5.20;;
52306;SDS011;38249;48.920;12.882;2022-07-29T08:35:35;6.72;;;5.97;;
52306;SDS011;38249;48.920;12.882;2022-07-29T08:38:02;6.05;;;5.45;;
52306;SDS011;38249;48.920;12.882;2022-07-29T08:40:29;6.07;;;5.50;;
52306;SDS011;38249;48.920;12.882;2022-07-29T08:42:55;6.13;;;5.55;;
52306;SDS011;38249;48.920;12.882;2022-07-29T08:45:22;5.68;;;5.18;;
52306;SDS011;38249;48.920;12.882;2022-07-29T08:47:50;6.75;;;5.72;;
52306;SDS011;38249;48.920;12.882;2022-07-29T08:50:18;5.75;;;5.15;;
52306;SDS011;38249;48.920;12.882;2022-07-29T08:52:44;6.00;;;4.93;;
52306;SDS011;38249;48.920;12.882;2022-07-29T08:55:11;6.13;;;5.55;;
52306;SDS011;38249;48.920;12.882;2022-07-29T08:57:41;7.45;;;5.85;;
52306;SDS011;38249;48.920;12.882;2022-07-29T09:00:08;5.93;;;5.43;;
52306;SDS011;38249;48.920;12.882;2022-07-29T09:02:38;6.00;;;5.40;;
52306;SDS011;38249;48.920;12.882;2022-07-29T09:05:08;6.15;;;5.57;;
52306;SDS011;38249;48.920;12.882;2022-07-29T09:07:34;6.20;;;5.18;;
52306;SDS011;38249;48.920;12.882;2022-07-29T09:10:01;5.70;;;4.97;;
52306;SDS011;38249;48.920;12.882;2022-07-29T09:12:30;6.22;;;5.63;;
52306;SDS011;38249;48.920;12.882;2022-07-29T09:14:57;6.40;;;5.80;;
52306;SDS011;38249;48.920;12.882;2022-07-29T09:20:10;5.93;;;4.90;;
52306;SDS011;38249;48.920;12.882;2022-07-29T09:22:38;6.13;;;5.53;;
52306;SDS011;38249;48.920;12.882;2022-07-29T09:25:05;6.93;;;4.78;;
52306;SDS011;38249;48.920;12.882;2022-07-29T09:27:32;5.78;;;5.22;;
52306;SDS011;38249;48.920;12.882;2022-07-29T09:29:59;6.15;;;5.13;;
52306;SDS011;38249;48.920;12.882;2022-07-29T09:32:27;6.25;;;5.18;;
52306;SDS011;38249;48.920;12.882;2022-07-29T09:37:44;5.03;;;4.55;;
52306;SDS011;38249;48.920;12.882;2022-07-29T09:40:12;7.07;;;4.82;;
52306;SDS011;38249;48.920;12.882;2022-07-29T09:42:40;4.72;;;4.30;;
52306;SDS011;38249;48.920;12.882;2022-07-29T09:45:07;4.85;;;4.45;;
52306;SDS011;38249;48.920;12.882;2022-07-29T09:47:40;4.68;;;4.30;;
52306;SDS011;38249;48.920;12.882;2022-07-29T09:50:09;5.75;;;4.53;;
52306;SDS011;38249;48.920;12.882;2022-07-29T09:52:44;5.28;;;4.55;;
52306;SDS011;38249;48.920;12.882;2022-07-29T09:55:12;4.65;;;4.25;;
52306;SDS011;38249;48.920;12.882;2022-07-29T09:57:39;4.50;;;4.10;;
52306;SDS011;38249;48.920;12.882;2022-07-29T10:00:06;5.93;;;4.82;;
52306;SDS011;38249;48.920;12.882;2022-07-29T10:02:36;4.43;;;4.03;;
52306;SDS011;38249;48.920;12.882;2022-07-29T10:05:04;6.82;;;3.80;;
52306;SDS011;38249;48.920;12.882;2022-07-29T10:07:44;4.10;;;3.58;;
52306;SDS011;38249;48.920;12.882;2022-07-29T10:10:17;3.70;;;3.40;;
52306;SDS011;38249;48.920;12.882;2022-07-29T10:12:48;4.20;;;3.83;;
52306;SDS011;38249;48.920;12.882;2022-07-29T10:15:17;5.43;;;4.53;;
52306;SDS011;38249;48.920;12.882;2022-07-29T10:17:44;4.85;;;3.90;;
52306;SDS011;38249;48.920;12.882;2022-07-29T10:20:11;4.15;;;3.75;;
52306;SDS011;38249;48.920;12.882;2022-07-29T10:22:37;4.00;;;3.55;;
52306;SDS011;38249;48.920;12.882;2022-07-29T10:25:06;7.57;;;3.97;;
52306;SDS011;38249;48.920;12.882;2022-07-29T10:27:34;5.90;;;4.40;;
52306;SDS011;38249;48.920;12.882;2022-07-29T10:30:01;8.07;;;4.57;;
52306;SDS011;38249;48.920;12.882;2022-07-29T10:32:32;4.00;;;3.70;;
52306;SDS011;38249;48.920;12.882;2022-07-29T10:38:07;4.47;;;4.18;;
52306;SDS011;38249;48.920;12.882;2022-07-29T10:40:51;4.03;;;3.72;;
52306;SDS011;38249;48.920;12.882;2022-07-29T10:46:09;4.28;;;3.97;;
52306;SDS011;38249;48.920;12.882;2022-07-29T10:48:45;5.45;;;3.67;;
52306;SDS011;38249;48.920;12.882;2022-07-29T10:54:41;4.68;;;4.07;;
52306;SDS011;38249;48.920;12.882;2022-07-29T10:57:15;4.32;;;4.03;;
52306;SDS011;38249;48.920;12.882;2022-07-29T10:59:46;4.15;;;3.63;;
52306;SDS011;38249;48.920;12.882;2022-07-29T11:05:09;3.72;;;3.47;;
52306;SDS011;38249;48.920;12.882;2022-07-29T11:07:38;3.72;;;3.42;;
52306;SDS011;38249;48.920;12.882;2022-07-29T11:10:19;3.45;;;3.25;;
52306;SDS011;38249;48.920;12.882;2022-07-29T11:12:48;5.07;;;3.28;;
52306;SDS011;38249;48.920;12.882;2022-07-29T11:15:16;5.00;;;3.53;;
52306;SDS011;38249;48.920;12.882;2022-07-29T11:18:07;3.55;;;3.25;;
52306;SDS011;38249;48.920;12.882;2022-07-29T11:20:38;4.75;;;3.08;;
52306;SDS011;38249;48.920;12.882;2022-07-29T11:23:23;3.20;;;3.00;;
52306;SDS011;38249;48.920;12.882;2022-07-29T11:28:51;2.95;;;2.75;;
52306;SDS011;38249;48.920;12.882;2022-07-29T11:31:31;3.65;;;2.95;;
52306;SDS011;38249;48.920;12.882;2022-07-29T11:39:41;3.15;;;2.85;;
52306;SDS011;38249;48.920;12.882;2022-07-29T11:45:05;2.80;;;2.60;;
52306;SDS011;38249;48.920;12.882;2022-07-29T11:47:34;3.05;;;2.78;;
52306;SDS011;38249;48.920;12.882;2022-07-29T11:50:04;3.05;;;2.60;;
52306;SDS011;38249;48.920;12.882;2022-07-29T11:52:32;3.22;;;2.88;;
52306;SDS011;38249;48.920;12.882;2022-07-29T11:55:01;2.88;;;2.50;;
52306;SDS011;38249;48.920;12.882;2022-07-29T11:57:29;3.47;;;2.58;;
52306;SDS011;38249;48.920;12.882;2022-07-29T11:59:56;3.17;;;2.47;;
52306;SDS011;38249;48.920;12.882;2022-07-29T12:02:25;2.70;;;2.50;;
52306;SDS011;38249;48.920;12.882;2022-07-29T12:05:04;2.75;;;2.55;;
52306;SDS011;38249;48.920;12.882;2022-07-29T12:07:32;3.90;;;3.20;;
52306;SDS011;38249;48.920;12.882;2022-07-29T12:10:00;2.80;;;2.60;;
52306;SDS011;38249;48.920;12.882;2022-07-29T12:12:27;3.60;;;2.70;;
52306;SDS011;38249;48.920;12.882;2022-07-29T12:14:53;4.88;;;2.40;;
52306;SDS011;38249;48.920;12.882;2022-07-29T12:17:28;2.70;;;2.50;;
52306;SDS011;38249;48.920;12.882;2022-07-29T12:19:56;2.55;;;2.35;;
52306;SDS011;38249;48.920;12.882;2022-07-29T12:22:27;2.35;;;2.15;;
52306;SDS011;38249;48.920;12.882;2022-07-29T12:24:54;2.22;;;2.03;;
52306;SDS011;38249;48.920;12.882;2022-07-29T12:27:21;3.15;;;2.10;;
52306;SDS011;38249;48.920;12.882;2022-07-29T12:29:55;3.50;;;2.35;;
52306;SDS011;38249;48.920;12.882;2022-07-29T12:32:22;2.50;;;2.30;;
52306;SDS011;38249;48.920;12.882;2022-07-29T12:34:50;2.20;;;2.00;;
52306;SDS011;38249;48.920;12.882;2022-07-29T12:37:17;2.08;;;1.98;;
52306;SDS011;38249;48.920;12.882;2022-07-29T12:39:44;2.63;;;2.42;;
52306;SDS011;38249;48.920;12.882;2022-07-29T12:42:11;3.03;;;2.47;;
52306;SDS011;38249;48.920;12.882;2022-07-29T12:44:48;1.75;;;1.65;;
52306;SDS011;38249;48.920;12.882;2022-07-29T12:47:16;1.83;;;1.48;;
52306;SDS011;38249;48.920;12.882;2022-07-29T12:49:44;1.88;;;1.48;;
52306;SDS011;38249;48.920;12.882;2022-07-29T12:52:24;2.15;;;1.55;;
52306;SDS011;38249;48.920;12.882;2022-07-29T12:54:54;2.15;;;1.92;;
52306;SDS011;38249;48.920;12.882;2022-07-29T12:57:21;2.35;;;2.15;;
52306;SDS011;38249;48.920;12.882;2022-07-29T12:59:58;2.17;;;1.90;;
52306;SDS011;38249;48.920;12.882;2022-07-29T13:02:27;2.40;;;2.00;;
52306;SDS011;38249;48.920;12.882;2022-07-29T13:04:54;1.85;;;1.75;;
52306;SDS011;38249;48.920;12.882;2022-07-29T13:07:25;3.83;;;2.28;;
52306;SDS011;38249;48.920;12.882;2022-07-29T13:09:54;3.05;;;1.70;;
52306;SDS011;38249;48.920;12.882;2022-07-29T13:12:21;2.35;;;2.15;;
52306;SDS011;38249;48.920;12.882;2022-07-29T13:14:47;3.50;;;2.40;;
52306;SDS011;38249;48.920;12.882;2022-07-29T13:17:16;2.35;;;2.15;;
52306;SDS011;38249;48.920;12.882;2022-07-29T13:19:46;2.35;;;2.17;;
52306;SDS011;38249;48.920;12.882;2022-07-29T13:22:15;3.92;;;2.28;;
52306;SDS011;38249;48.920;12.882;2022-07-29T13:24:49;3.35;;;2.00;;
52306;SDS011;38249;48.920;12.882;2022-07-29T13:27:17;3.25;;;2.70;;
52306;SDS011;38249;48.920;12.882;2022-07-29T13:29:44;2.28;;;2.08;;
52306;SDS011;38249;48.920;12.882;2022-07-29T13:32:11;4.07;;;2.20;;
52306;SDS011;38249;48.920;12.882;2022-07-29T13:34:37;2.10;;;2.00;;
52306;SDS011;38249;48.920;12.882;2022-07-29T13:37:04;3.58;;;2.00;;
52306;SDS011;38249;48.920;12.882;2022-07-29T13:39:31;2.58;;;1.92;;
52306;SDS011;38249;48.920;12.882;2022-07-29T13:41:58;2.40;;;2.20;;
52306;SDS011;38249;48.920;12.882;2022-07-29T13:44:25;3.20;;;2.40;;
52306;SDS011;38249;48.920;12.882;2022-07-29T13:46:52;2.20;;;2.00;;
52306;SDS011;38249;48.920;12.882;2022-07-29T13:49:18;3.03;;;1.90;;
52306;SDS011;38249;48.920;12.882;2022-07-29T13:51:45;2.45;;;2.10;;
52306;SDS011;38249;48.920;12.882;2022-07-29T13:54:11;5.53;;;2.22;;
52306;SDS011;38249;48.920;12.882;2022-07-29T13:56:38;2.35;;;1.70;;
52306;SDS011;38249;48.920;12.882;2022-07-29T13:59:05;10.98;;;2.80;;
52306;SDS011;38249;48.920;12.882;2022-07-29T14:01:32;2.72;;;2.20;;
52306;SDS011;38249;48.920;12.882;2022-07-29T14:03:59;2.60;;;1.73;;
52306;SDS011;38249;48.920;12.882;2022-07-29T14:06:25;3.05;;;2.05;;
52306;SDS011;38249;48.920;12.882;2022-07-29T14:08:52;2.03;;;1.83;;
52306;SDS011;38249;48.920;12.882;2022-07-29T14:11:18;3.30;;;2.35;;
52306;SDS011;38249;48.920;12.882;2022-07-29T14:13:45;2.05;;;1.90;;
52306;SDS011;38249;48.920;12.882;2022-07-29T14:16:13;1.92;;;1.80;;
52306;SDS011;38249;48.920;12.882;2022-07-29T14:18:39;1.88;;;1.77;;
52306;SDS011;38249;48.920;12.882;2022-07-29T14:21:06;2.08;;;1.98;;
52306;SDS011;38249;48.920;12.882;2022-07-29T14:23:32;2.83;;;1.85;;
52306;SDS011;38249;48.920;12.882;2022-07-29T14:25:58;2.88;;;2.20;;
52306;SDS011;38249;48.920;12.882;2022-07-29T14:28:25;3.85;;;2.40;;
52306;SDS011;38249;48.920;12.882;2022-07-29T14:30:51;2.50;;;2.13;;
52306;SDS011;38249;48.920;12.882;2022-07-29T14:33:19;2.20;;;2.00;;
52306;SDS011;38249;48.920;12.882;2022-07-29T14:35:46;3.65;;;1.88;;
52306;SDS011;38249;48.920;12.882;2022-07-29T14:38:12;3.38;;;1.80;;
52306;SDS011;38249;48.920;12.882;2022-07-29T14:40:39;1.80;;;1.52;;
52306;SDS011;38249;48.920;12.882;2022-07-29T14:43:05;2.58;;;2.33;;
52306;SDS011;38249;48.920;12.882;2022-07-29T14:45:32;1.83;;;1.73;;
52306;SDS011;38249;48.920;12.882;2022-07-29T14:47:58;2.55;;;1.98;;
52306;SDS011;38249;48.920;12.882;2022-07-29T14:50:26;2.33;;;2.05;;
52306;SDS011;38249;48.920;12.882;2022-07-29T14:52:53;3.75;;;2.42;;
52306;SDS011;38249;48.920;12.882;2022-07-29T14:55:19;1.90;;;1.73;;
52306;SDS011;38249;48.920;12.882;2022-07-29T14:57:46;2.47;;;2.00;;
52306;SDS011;38249;48.920;12.882;2022-07-29T15:00:13;2.00;;;1.80;;
52306;SDS011;38249;48.920;12.882;2022-07-29T15:02:40;1.65;;;1.42;;
52306;SDS011;38249;48.920;12.882;2022-07-29T15:05:06;2.58;;;1.98;;
52306;SDS011;38249;48.920;12.882;2022-07-29T15:07:34;2.95;;;1.90;;
52306;SDS011;38249;48.920;12.882;2022-07-29T15:10:01;2.13;;;1.90;;